sensor_id;sensor_type;location;lat;lon;timestamp;pressure;altitude;pressure_sealevel;temperature;humidity
70758;BME280;59316;52.964;7.102;2023-04-22T00:02:00;100930.25;;;12.89;nan
70758;BME280;59316;52.964;7.102;2023-04-22T00:07:22;100936.25;;;12.91;nan
70758;BME280;59316;52.964;7.102;2023-04-22T00:12:44;100932.13;;;12.87;nan
70758;BME280;59316;52.964;7.102;2023-04-22T00:18:05;100934.84;;;12.72;nan
70758;BME280;59316;52.964;7.102;2023-04-22T00:23:27;100938.50;;;12.57;nan
70758;BME280;59316;52.964;7.102;2023-04-22T00:28:49;100915.63;;;12.59;nan
70758;BME280;59316;52.964;7.102;2023-04-22T00:34:10;100919.38;;;12.55;nan
70758;BME280;59316;52.964;7.102;2023-04-22T00:39:32;100926.50;;;12.40;nan
70758;BME280;59316;52.964;7.102;2023-04-22T00:44:54;100934.44;;;12.38;nan
70758;BME280;59316;52.964;7.102;2023-04-22T00:50:15;100942.50;;;12.35;nan
70758;BME280;59316;52.964;7.102;2023-04-22T00:55:37;100927.38;;;12.53;nan
70758;BME280;59316;52.964;7.102;2023-04-22T01:00:58;100906.72;;;12.34;nan
70758;BME280;59316;52.964;7.102;2023-04-22T01:06:21;100889.06;;;12.10;nan
70758;BME280;59316;52.964;7.102;2023-04-22T01:11:44;100877.22;;;12.17;nan
70758;BME280;59316;52.964;7.102;2023-04-22T01:17:07;100862.63;;;12.13;nan
70758;BME280;59316;52.964;7.102;2023-04-22T01:22:35;100858.94;;;12.03;nan
70758;BME280;59316;52.964;7.102;2023-04-22T01:27:59;100855.75;;;11.85;nan
70758;BME280;59316;52.964;7.102;2023-04-22T01:33:21;100858.88;;;11.63;nan
70758;BME280;59316;52.964;7.102;2023-04-22T01:38:42;100864.97;;;11.36;nan
70758;BME280;59316;52.964;7.102;2023-04-22T01:44:04;100864.03;;;11.08;nan
70758;BME280;59316;52.964;7.102;2023-04-22T01:49:26;100872.13;;;10.60;nan
70758;BME280;59316;52.964;7.102;2023-04-22T01:54:49;100866.25;;;10.26;nan
70758;BME280;59316;52.964;7.102;2023-04-22T02:00:11;100854.59;;;10.01;nan
70758;BME280;59316;52.964;7.102;2023-04-22T02:05:32;100864.06;;;9.88;nan
70758;BME280;59316;52.964;7.102;2023-04-22T02:10:54;100852.75;;;9.87;nan
70758;BME280;59316;52.964;7.102;2023-04-22T02:16:15;100848.06;;;9.78;nan
70758;BME280;59316;52.964;7.102;2023-04-22T02:21:37;100846.41;;;9.61;nan
70758;BME280;59316;52.964;7.102;2023-04-22T02:26:58;100833.06;;;9.66;nan
70758;BME280;59316;52.964;7.102;2023-04-22T02:32:21;100834.75;;;9.67;nan
70758;BME280;59316;52.964;7.102;2023-04-22T02:37:42;100823.91;;;9.59;nan
70758;BME280;59316;52.964;7.102;2023-04-22T02:43:04;100822.81;;;9.63;nan
70758;BME280;59316;52.964;7.102;2023-04-22T02:48:25;100810.69;;;9.46;nan
70758;BME280;59316;52.964;7.102;2023-04-22T02:53:47;100813.91;;;9.51;nan
70758;BME280;59316;52.964;7.102;2023-04-22T02:59:08;100822.97;;;9.44;nan
70758;BME280;59316;52.964;7.102;2023-04-22T03:04:30;100821.47;;;9.08;nan
70758;BME280;59316;52.964;7.102;2023-04-22T03:09:51;100824.69;;;8.79;nan
70758;BME280;59316;52.964;7.102;2023-04-22T03:15:13;100817.69;;;8.80;nan
70758;BME280;59316;52.964;7.102;2023-04-22T03:20:35;100823.44;;;8.86;nan
70758;BME280;59316;52.964;7.102;2023-04-22T03:25:56;100795.69;;;9.01;nan
70758;BME280;59316;52.964;7.102;2023-04-22T03:31:18;100795.06;;;8.80;nan
70758;BME280;59316;52.964;7.102;2023-04-22T03:36:40;100798.03;;;8.74;nan
70758;BME280;59316;52.964;7.102;2023-04-22T03:42:02;100789.34;;;8.40;nan
70758;BME280;59316;52.964;7.102;2023-04-22T03:47:25;100782.69;;;8.17;nan
70758;BME280;59316;52.964;7.102;2023-04-22T03:52:53;100778.63;;;8.11;nan
70758;BME280;59316;52.964;7.102;2023-04-22T03:58:16;100774.97;;;8.15;nan
70758;BME280;59316;52.964;7.102;2023-04-22T04:03:39;100775.41;;;8.41;nan
70758;BME280;59316;52.964;7.102;2023-04-22T04:09:02;100752.69;;;8.43;nan
70758;BME280;59316;52.964;7.102;2023-04-22T04:14:25;100744.19;;;8.73;nan
70758;BME280;59316;52.964;7.102;2023-04-22T04:19:47;100742.25;;;8.93;nan
70758;BME280;59316;52.964;7.102;2023-04-22T04:25:09;100745.03;;;9.05;nan
70758;BME280;59316;52.964;7.102;2023-04-22T04:30:34;100743.59;;;9.16;nan
70758;BME280;59316;52.964;7.102;2023-04-22T04:35:57;100735.88;;;9.30;nan
70758;BME280;59316;52.964;7.102;2023-04-22T04:41:23;100745.69;;;9.41;nan
70758;BME280;59316;52.964;7.102;2023-04-22T04:46:45;100739.47;;;9.74;nan
70758;BME280;59316;52.964;7.102;2023-04-22T04:52:07;100745.44;;;9.76;nan
70758;BME280;59316;52.964;7.102;2023-04-22T04:57:29;100741.06;;;9.77;nan
70758;BME280;59316;52.964;7.102;2023-04-22T05:02:50;100754.84;;;10.09;nan
70758;BME280;59316;52.964;7.102;2023-04-22T05:08:12;100754.44;;;10.31;nan
70758;BME280;59316;52.964;7.102;2023-04-22T05:13:35;100753.34;;;10.50;nan
70758;BME280;59316;52.964;7.102;2023-04-22T05:18:58;100746.31;;;10.79;nan
70758;BME280;59316;52.964;7.102;2023-04-22T05:24:20;100751.94;;;10.88;nan
70758;BME280;59316;52.964;7.102;2023-04-22T05:29:42;100754.31;;;11.05;nan
70758;BME280;59316;52.964;7.102;2023-04-22T05:35:06;100763.72;;;11.08;nan
70758;BME280;59316;52.964;7.102;2023-04-22T05:40:29;100751.13;;;11.42;nan
70758;BME280;59316;52.964;7.102;2023-04-22T05:45:51;100748.44;;;11.56;nan
70758;BME280;59316;52.964;7.102;2023-04-22T05:51:14;100753.53;;;11.72;nan
70758;BME280;59316;52.964;7.102;2023-04-22T05:56:36;100761.53;;;11.96;nan
70758;BME280;59316;52.964;7.102;2023-04-22T06:01:57;100751.19;;;12.08;nan
70758;BME280;59316;52.964;7.102;2023-04-22T06:07:19;100758.94;;;12.09;nan
70758;BME280;59316;52.964;7.102;2023-04-22T06:12:40;100760.44;;;12.39;nan
70758;BME280;59316;52.964;7.102;2023-04-22T06:18:02;100760.13;;;12.57;nan
70758;BME280;59316;52.964;7.102;2023-04-22T06:23:24;100756.38;;;12.85;nan
70758;BME280;59316;52.964;7.102;2023-04-22T06:28:45;100752.97;;;13.09;nan
70758;BME280;59316;52.964;7.102;2023-04-22T06:34:12;100749.25;;;13.24;nan
70758;BME280;59316;52.964;7.102;2023-04-22T06:39:33;100748.19;;;13.51;nan
70758;BME280;59316;52.964;7.102;2023-04-22T06:45:18;100731.03;;;13.70;nan
70758;BME280;59316;52.964;7.102;2023-04-22T06:50:58;100741.22;;;13.74;nan
70758;BME280;59316;52.964;7.102;2023-04-22T06:56:19;100740.78;;;13.92;nan
70758;BME280;59316;52.964;7.102;2023-04-22T07:01:41;100732.97;;;14.15;nan
70758;BME280;59316;52.964;7.102;2023-04-22T07:07:02;100747.69;;;14.28;nan
70758;BME280;59316;52.964;7.102;2023-04-22T07:12:24;100749.97;;;14.67;nan
70758;BME280;59316;52.964;7.102;2023-04-22T07:17:46;100749.00;;;14.91;nan
70758;BME280;59316;52.964;7.102;2023-04-22T07:23:07;100732.22;;;15.47;nan
70758;BME280;59316;52.964;7.102;2023-04-22T07:28:29;100733.41;;;15.54;nan
70758;BME280;59316;52.964;7.102;2023-04-22T07:33:50;100731.97;;;15.50;nan
70758;BME280;59316;52.964;7.102;2023-04-22T07:39:12;100733.44;;;15.97;nan
70758;BME280;59316;52.964;7.102;2023-04-22T07:44:33;100740.63;;;15.95;nan
70758;BME280;59316;52.964;7.102;2023-04-22T07:49:57;100725.63;;;16.16;nan
70758;BME280;59316;52.964;7.102;2023-04-22T07:55:19;100731.16;;;16.75;nan
70758;BME280;59316;52.964;7.102;2023-04-22T08:00:40;100712.72;;;16.95;nan
70758;BME280;59316;52.964;7.102;2023-04-22T08:06:02;100711.94;;;17.43;nan
70758;BME280;59316;52.964;7.102;2023-04-22T08:11:23;100706.72;;;18.10;nan
70758;BME280;59316;52.964;7.102;2023-04-22T08:16:45;100704.19;;;18.56;nan
70758;BME280;59316;52.964;7.102;2023-04-22T08:22:06;100692.38;;;18.68;nan
70758;BME280;59316;52.964;7.102;2023-04-22T08:27:28;100671.19;;;19.32;nan
70758;BME280;59316;52.964;7.102;2023-04-22T08:32:49;100674.34;;;19.98;nan
70758;BME280;59316;52.964;7.102;2023-04-22T08:38:11;100669.84;;;20.76;nan
70758;BME280;59316;52.964;7.102;2023-04-22T08:43:33;100658.69;;;20.64;nan
70758;BME280;59316;52.964;7.102;2023-04-22T08:48:55;100657.16;;;20.62;nan
70758;BME280;59316;52.964;7.102;2023-04-22T08:54:16;100655.44;;;21.45;nan
70758;BME280;59316;52.964;7.102;2023-04-22T08:59:38;100658.59;;;21.48;nan
70758;BME280;59316;52.964;7.102;2023-04-22T09:05:01;100654.97;;;21.41;nan
70758;BME280;59316;52.964;7.102;2023-04-22T09:10:24;100646.44;;;21.79;nan
70758;BME280;59316;52.964;7.102;2023-04-22T09:15:46;100651.19;;;22.48;nan
70758;BME280;59316;52.964;7.102;2023-04-22T09:21:07;100641.97;;;23.14;nan
70758;BME280;59316;52.964;7.102;2023-04-22T09:26:29;100628.44;;;23.38;nan
70758;BME280;59316;52.964;7.102;2023-04-22T09:31:51;100627.13;;;23.57;nan
70758;BME280;59316;52.964;7.102;2023-04-22T09:37:13;100632.34;;;23.27;nan
70758;BME280;59316;52.964;7.102;2023-04-22T09:42:53;100631.44;;;22.74;nan
70758;BME280;59316;52.964;7.102;2023-04-22T09:48:19;100619.63;;;23.15;nan
70758;BME280;59316;52.964;7.102;2023-04-22T09:53:40;100606.81;;;23.10;nan
70758;BME280;59316;52.964;7.102;2023-04-22T09:59:01;100594.09;;;23.88;nan
70758;BME280;59316;52.964;7.102;2023-04-22T10:04:23;100603.38;;;23.92;nan
70758;BME280;59316;52.964;7.102;2023-04-22T10:09:45;100595.09;;;24.02;nan
70758;BME280;59316;52.964;7.102;2023-04-22T10:15:07;100586.53;;;24.29;nan
70758;BME280;59316;52.964;7.102;2023-04-22T10:20:30;100563.66;;;24.56;nan
70758;BME280;59316;52.964;7.102;2023-04-22T10:25:55;100570.31;;;24.88;nan
70758;BME280;59316;52.964;7.102;2023-04-22T10:31:20;100570.78;;;25.49;nan
70758;BME280;59316;52.964;7.102;2023-04-22T10:37:05;100566.75;;;26.01;nan
70758;BME280;59316;52.964;7.102;2023-04-22T10:42:28;100565.25;;;25.50;nan
70758;BME280;59316;52.964;7.102;2023-04-22T10:47:50;100561.81;;;25.98;nan
70758;BME280;59316;52.964;7.102;2023-04-22T10:53:33;100553.88;;;26.38;nan
70758;BME280;59316;52.964;7.102;2023-04-22T10:58:55;100549.94;;;26.21;nan
70758;BME280;59316;52.964;7.102;2023-04-22T11:04:21;100544.00;;;26.52;nan
70758;BME280;59316;52.964;7.102;2023-04-22T11:09:44;100542.25;;;25.98;nan
70758;BME280;59316;52.964;7.102;2023-04-22T11:20:32;100536.03;;;24.99;nan
70758;BME280;59316;52.964;7.102;2023-04-22T11:25:55;100542.13;;;25.14;nan
70758;BME280;59316;52.964;7.102;2023-04-22T11:31:18;100528.88;;;26.04;nan
70758;BME280;59316;52.964;7.102;2023-04-22T11:36:44;100528.34;;;26.49;nan
70758;BME280;59316;52.964;7.102;2023-04-22T11:42:05;100514.31;;;26.34;nan
70758;BME280;59316;52.964;7.102;2023-04-22T11:47:30;100526.63;;;26.08;nan
70758;BME280;59316;52.964;7.102;2023-04-22T11:58:24;100518.66;;;26.55;nan
70758;BME280;59316;52.964;7.102;2023-04-22T12:03:47;100505.25;;;26.48;nan
70758;BME280;59316;52.964;7.102;2023-04-22T12:09:08;100523.22;;;25.44;nan
70758;BME280;59316;52.964;7.102;2023-04-22T12:14:32;100514.75;;;24.62;nan
70758;BME280;59316;52.964;7.102;2023-04-22T12:19:54;100522.19;;;24.88;nan
70758;BME280;59316;52.964;7.102;2023-04-22T12:25:17;100525.28;;;25.49;nan
70758;BME280;59316;52.964;7.102;2023-04-22T12:30:38;100520.69;;;25.78;nan
70758;BME280;59316;52.964;7.102;2023-04-22T12:35:59;100497.81;;;26.37;nan
70758;BME280;59316;52.964;7.102;2023-04-22T12:41:21;100505.13;;;25.53;nan
70758;BME280;59316;52.964;7.102;2023-04-22T12:46:42;100502.94;;;26.25;nan
70758;BME280;59316;52.964;7.102;2023-04-22T12:52:04;100488.53;;;25.01;nan
70758;BME280;59316;52.964;7.102;2023-04-22T12:57:26;100483.50;;;25.96;nan
70758;BME280;59316;52.964;7.102;2023-04-22T13:02:47;63551.88;;;-143.20;100.00
70758;BME280;59316;52.964;7.102;2023-04-22T13:08:09;63551.88;;;-143.20;100.00
70758;BME280;59316;52.964;7.102;2023-04-22T13:13:31;100483.50;;;25.96;nan
70758;BME280;59316;52.964;7.102;2023-04-22T13:18:52;100460.72;;;26.74;nan
70758;BME280;59316;52.964;7.102;2023-04-22T13:24:14;100471.09;;;25.40;nan
70758;BME280;59316;52.964;7.102;2023-04-22T13:29:36;100462.13;;;24.91;nan
70758;BME280;59316;52.964;7.102;2023-04-22T13:34:58;100442.31;;;25.14;nan
70758;BME280;59316;52.964;7.102;2023-04-22T13:40:22;100423.16;;;26.14;nan
70758;BME280;59316;52.964;7.102;2023-04-22T13:45:44;100416.59;;;25.13;nan
70758;BME280;59316;52.964;7.102;2023-04-22T13:51:05;100381.31;;;26.06;nan
70758;BME280;59316;52.964;7.102;2023-04-22T13:56:28;100398.44;;;25.36;nan
70758;BME280;59316;52.964;7.102;2023-04-22T14:01:50;100383.78;;;24.62;nan
70758;BME280;59316;52.964;7.102;2023-04-22T14:07:11;100379.25;;;24.63;nan
70758;BME280;59316;52.964;7.102;2023-04-22T14:12:33;100361.75;;;24.32;nan
70758;BME280;59316;52.964;7.102;2023-04-22T14:17:54;100340.44;;;23.52;nan
70758;BME280;59316;52.964;7.102;2023-04-22T14:23:16;100354.44;;;22.87;nan
70758;BME280;59316;52.964;7.102;2023-04-22T14:28:41;100363.06;;;22.36;nan
70758;BME280;59316;52.964;7.102;2023-04-22T14:34:02;100372.53;;;22.01;nan
70758;BME280;59316;52.964;7.102;2023-04-22T14:39:24;100375.16;;;21.06;nan
70758;BME280;59316;52.964;7.102;2023-04-22T14:44:45;100381.38;;;20.74;nan
70758;BME280;59316;52.964;7.102;2023-04-22T14:50:07;100388.50;;;20.90;nan
70758;BME280;59316;52.964;7.102;2023-04-22T14:55:28;100383.44;;;21.11;nan
70758;BME280;59316;52.964;7.102;2023-04-22T15:00:50;100379.09;;;21.19;nan
70758;BME280;59316;52.964;7.102;2023-04-22T15:06:12;100377.19;;;21.36;nan
70758;BME280;59316;52.964;7.102;2023-04-22T15:11:33;100364.97;;;21.58;nan
70758;BME280;59316;52.964;7.102;2023-04-22T15:16:55;100360.34;;;21.52;nan
70758;BME280;59316;52.964;7.102;2023-04-22T15:22:17;100365.09;;;21.33;nan
70758;BME280;59316;52.964;7.102;2023-04-22T15:27:38;100371.25;;;21.34;nan
70758;BME280;59316;52.964;7.102;2023-04-22T15:33:00;100368.47;;;21.19;nan
70758;BME280;59316;52.964;7.102;2023-04-22T15:38:21;100383.00;;;20.91;nan
70758;BME280;59316;52.964;7.102;2023-04-22T15:43:43;100388.69;;;20.80;nan
70758;BME280;59316;52.964;7.102;2023-04-22T15:49:04;100415.09;;;20.15;nan
70758;BME280;59316;52.964;7.102;2023-04-22T15:54:26;100423.66;;;18.81;nan
70758;BME280;59316;52.964;7.102;2023-04-22T15:59:47;100410.25;;;18.02;nan
70758;BME280;59316;52.964;7.102;2023-04-22T16:05:13;100474.53;;;17.56;nan
70758;BME280;59316;52.964;7.102;2023-04-22T16:10:34;100533.25;;;16.93;nan
70758;BME280;59316;52.964;7.102;2023-04-22T16:15:56;100535.69;;;16.16;nan
70758;BME280;59316;52.964;7.102;2023-04-22T16:21:18;100522.78;;;16.13;nan
70758;BME280;59316;52.964;7.102;2023-04-22T16:26:39;100519.44;;;16.31;nan
70758;BME280;59316;52.964;7.102;2023-04-22T16:32:01;100527.50;;;16.29;nan
70758;BME280;59316;52.964;7.102;2023-04-22T16:37:24;100522.66;;;16.44;nan
70758;BME280;59316;52.964;7.102;2023-04-22T16:42:45;100524.91;;;16.58;nan
70758;BME280;59316;52.964;7.102;2023-04-22T16:48:07;100518.09;;;16.56;nan
70758;BME280;59316;52.964;7.102;2023-04-22T16:53:29;100523.66;;;16.53;nan
70758;BME280;59316;52.964;7.102;2023-04-22T16:58:51;100527.38;;;16.40;nan
70758;BME280;59316;52.964;7.102;2023-04-22T17:04:12;100519.06;;;16.45;nan
70758;BME280;59316;52.964;7.102;2023-04-22T17:09:34;100520.97;;;16.33;nan
70758;BME280;59316;52.964;7.102;2023-04-22T17:14:55;100502.66;;;16.32;nan
70758;BME280;59316;52.964;7.102;2023-04-22T17:20:17;100517.09;;;16.28;nan
70758;BME280;59316;52.964;7.102;2023-04-22T17:25:38;100530.53;;;16.15;nan
70758;BME280;59316;52.964;7.102;2023-04-22T17:31:01;100526.66;;;16.19;nan
70758;BME280;59316;52.964;7.102;2023-04-22T17:36:22;100524.28;;;16.06;nan
70758;BME280;59316;52.964;7.102;2023-04-22T17:41:44;100524.66;;;16.01;nan
70758;BME280;59316;52.964;7.102;2023-04-22T17:47:05;100524.81;;;16.00;nan
70758;BME280;59316;52.964;7.102;2023-04-22T17:52:27;100526.44;;;15.91;nan
70758;BME280;59316;52.964;7.102;2023-04-22T17:57:48;100518.81;;;15.88;nan
70758;BME280;59316;52.964;7.102;2023-04-22T18:03:10;100521.53;;;15.76;nan
70758;BME280;59316;52.964;7.102;2023-04-22T18:08:31;100518.34;;;15.73;nan
70758;BME280;59316;52.964;7.102;2023-04-22T18:13:53;100514.22;;;15.80;nan
70758;BME280;59316;52.964;7.102;2023-04-22T18:19:15;100516.97;;;15.79;nan
70758;BME280;59316;52.964;7.102;2023-04-22T18:24:37;100517.19;;;15.66;nan
70758;BME280;59316;52.964;7.102;2023-04-22T18:29:59;100526.59;;;15.58;nan
70758;BME280;59316;52.964;7.102;2023-04-22T18:35:20;100527.44;;;15.59;nan
70758;BME280;59316;52.964;7.102;2023-04-22T18:40:42;100537.81;;;15.51;nan
70758;BME280;59316;52.964;7.102;2023-04-22T18:46:03;100538.47;;;15.43;nan
70758;BME280;59316;52.964;7.102;2023-04-22T18:51:25;100542.91;;;15.31;nan
70758;BME280;59316;52.964;7.102;2023-04-22T18:56:46;100541.28;;;15.30;nan
70758;BME280;59316;52.964;7.102;2023-04-22T19:02:12;100553.41;;;15.21;nan
70758;BME280;59316;52.964;7.102;2023-04-22T19:07:33;100548.72;;;15.04;nan
70758;BME280;59316;52.964;7.102;2023-04-22T19:12:55;100544.81;;;14.98;nan
70758;BME280;59316;52.964;7.102;2023-04-22T19:18:16;100551.00;;;14.76;nan
70758;BME280;59316;52.964;7.102;2023-04-22T19:23:38;100549.34;;;14.75;nan
70758;BME280;59316;52.964;7.102;2023-04-22T19:29:00;100551.13;;;14.74;nan
70758;BME280;59316;52.964;7.102;2023-04-22T19:34:22;100555.78;;;14.71;nan
70758;BME280;59316;52.964;7.102;2023-04-22T19:39:43;100567.78;;;14.64;nan
70758;BME280;59316;52.964;7.102;2023-04-22T19:45:05;100564.78;;;14.68;nan
70758;BME280;59316;52.964;7.102;2023-04-22T19:50:27;100565.63;;;14.69;nan
70758;BME280;59316;52.964;7.102;2023-04-22T19:55:49;100569.91;;;14.70;nan
70758;BME280;59316;52.964;7.102;2023-04-22T20:01:12;100584.28;;;14.66;nan
70758;BME280;59316;52.964;7.102;2023-04-22T20:06:34;100573.84;;;14.43;nan
70758;BME280;59316;52.964;7.102;2023-04-22T20:11:56;100594.06;;;14.20;nan
70758;BME280;59316;52.964;7.102;2023-04-22T20:17:18;100601.09;;;13.85;nan
70758;BME280;59316;52.964;7.102;2023-04-22T20:22:41;100599.75;;;13.68;nan
70758;BME280;59316;52.964;7.102;2023-04-22T20:28:05;100607.22;;;13.39;nan
70758;BME280;59316;52.964;7.102;2023-04-22T20:33:26;100606.53;;;13.12;nan
70758;BME280;59316;52.964;7.102;2023-04-22T20:38:48;100598.66;;;12.77;nan
70758;BME280;59316;52.964;7.102;2023-04-22T20:44:09;100599.53;;;12.64;nan
70758;BME280;59316;52.964;7.102;2023-04-22T20:49:31;100616.66;;;12.57;nan
70758;BME280;59316;52.964;7.102;2023-04-22T20:54:52;100624.53;;;12.57;nan
70758;BME280;59316;52.964;7.102;2023-04-22T21:00:14;100629.38;;;12.51;nan
70758;BME280;59316;52.964;7.102;2023-04-22T21:05:36;100638.44;;;12.46;nan
70758;BME280;59316;52.964;7.102;2023-04-22T21:10:57;100651.53;;;12.33;nan
70758;BME280;59316;52.964;7.102;2023-04-22T21:16:22;100659.19;;;12.24;nan
70758;BME280;59316;52.964;7.102;2023-04-22T21:21:46;100667.06;;;12.24;nan
70758;BME280;59316;52.964;7.102;2023-04-22T21:27:10;100659.63;;;12.17;nan
70758;BME280;59316;52.964;7.102;2023-04-22T21:32:31;100661.94;;;12.09;nan
70758;BME280;59316;52.964;7.102;2023-04-22T21:37:52;100658.06;;;12.02;nan
70758;BME280;59316;52.964;7.102;2023-04-22T21:43:14;100671.28;;;12.00;nan
70758;BME280;59316;52.964;7.102;2023-04-22T21:48:36;100663.63;;;11.97;nan
70758;BME280;59316;52.964;7.102;2023-04-22T21:53:57;100665.81;;;11.91;nan
70758;BME280;59316;52.964;7.102;2023-04-22T21:59:19;100665.69;;;11.79;nan
70758;BME280;59316;52.964;7.102;2023-04-22T22:04:41;100666.41;;;11.56;nan
70758;BME280;59316;52.964;7.102;2023-04-22T22:10:05;100673.16;;;11.20;nan
70758;BME280;59316;52.964;7.102;2023-04-22T22:15:27;100671.66;;;10.88;nan
70758;BME280;59316;52.964;7.102;2023-04-22T22:20:49;100683.38;;;10.68;nan
70758;BME280;59316;52.964;7.102;2023-04-22T22:26:11;100688.13;;;10.32;nan
70758;BME280;59316;52.964;7.102;2023-04-22T22:31:32;100694.94;;;10.20;nan
70758;BME280;59316;52.964;7.102;2023-04-22T22:36:54;100695.88;;;10.05;nan
70758;BME280;59316;52.964;7.102;2023-04-22T22:42:15;100695.56;;;9.81;nan
70758;BME280;59316;52.964;7.102;2023-04-22T22:47:37;100705.13;;;9.66;nan
70758;BME280;59316;52.964;7.102;2023-04-22T22:52:58;100705.84;;;9.53;nan
70758;BME280;59316;52.964;7.102;2023-04-22T22:58:20;100712.31;;;9.62;nan
70758;BME280;59316;52.964;7.102;2023-04-22T23:03:41;100719.41;;;9.75;nan
70758;BME280;59316;52.964;7.102;2023-04-22T23:09:03;100730.19;;;9.84;nan
70758;BME280;59316;52.964;7.102;2023-04-22T23:14:25;100723.78;;;10.04;nan
70758;BME280;59316;52.964;7.102;2023-04-22T23:19:49;100718.75;;;10.16;nan
70758;BME280;59316;52.964;7.102;2023-04-22T23:25:11;100724.34;;;10.39;nan
70758;BME280;59316;52.964;7.102;2023-04-22T23:30:33;100710.81;;;10.32;nan
70758;BME280;59316;52.964;7.102;2023-04-22T23:35:55;100720.72;;;10.27;nan
70758;BME280;59316;52.964;7.102;2023-04-22T23:41:16;100709.03;;;10.18;nan
70758;BME280;59316;52.964;7.102;2023-04-22T23:46:38;100722.91;;;10.04;nan
70758;BME280;59316;52.964;7.102;2023-04-22T23:52:00;100718.13;;;9.82;nan
70758;BME280;59316;52.964;7.102;2023-04-22T23:57:21;100718.34;;;9.63;nan
